Deweyville, Texas
Current Conditions -  °F | °C
As of 12:15 AM on Tuesday 21 Oct 2014 (Local Time) from K5R8 Reporting Station
Clear Clear  
Wind Chill: 14°   Ceiling: Unl
Heat Index: 14°   Visibility: 10mi
Dew Point: 13°   Wind: 0mph
Humidity: 94%   Direction: NA
Pressure: 30.03"   Gusts: NA
Location:  30.3°N, 93.74°W
Report Text: K5R8 210515Z AUTO 00000KT 10SM CLR 14/13 A3003 RMK AO2 T01350126
Loading
Personal Weather Stations






























Interactive Weather Map
Tropical Storm Tracking
New forecast layout! Learn more

10-Day Weather Forecast

Advertisements
Track Severe Weather on mobile